Time;durP1;ratioP1;P1;durP2;ratioP2;P2;SDS_P1;SDS_P2;PMS_P1;PMS_P2;Temp;Humidity;BMP_temperature;BMP_pressure;BME280_temperature;BME280_humidity;BME280_pressure;Samples;Min_cycle;Max_cycle;Signal;HPM_P1;HPM_P2
2023/05/26 00:01:34;;;;;;;4.07;1.73;;;;;;;25.38;36.25;102817.19;5007988;28;96904;-74
2023/05/26 00:04:02;;;;;;;4.15;2.17;;;;;;;25.37;36.11;102819.09;5008722;28;97677;-74
2023/05/26 00:06:31;;;;;;;4.10;1.85;;;;;;;25.37;36.08;102816.34;5007397;28;98885;-74
2023/05/26 00:08:57;;;;;;;4.65;1.85;;;;;;;25.37;36.02;102815.47;5009516;28;96787;-74
2023/05/26 00:11:24;;;;;;;4.10;2.05;;;;;;;25.37;36.16;102818.22;5008016;28;96983;-74
2023/05/26 00:13:51;;;;;;;4.32;1.90;;;;;;;25.36;35.68;102828.38;5008513;28;97532;-74
2023/05/26 00:16:17;;;;;;;5.15;1.85;;;;;;;25.35;36.29;102823.88;5007828;28;100391;-74
2023/05/26 00:18:44;;;;;;;3.55;1.73;;;;;;;25.34;36.01;102823.03;5009633;28;96830;-74
2023/05/26 00:21:11;;;;;;;4.30;2.08;;;;;;;25.36;36.17;102822.88;5008512;28;96877;-74
2023/05/26 00:23:37;;;;;;;3.80;1.70;;;;;;;25.34;36.11;102824.91;5007344;28;101002;-74
2023/05/26 00:26:04;;;;;;;3.63;2.00;;;;;;;25.34;35.93;102824.91;5004694;28;97563;-74
2023/05/26 00:28:30;;;;;;;5.35;1.90;;;;;;;25.34;36.13;102831.28;4998237;28;96750;-74
2023/05/26 00:30:57;;;;;;;4.05;1.73;;;;;;;25.34;36.06;102828.53;5009310;28;96823;-74
2023/05/26 00:33:24;;;;;;;3.22;1.75;;;;;;;25.34;36.15;102822.16;5008762;28;97345;-74
2023/05/26 00:35:50;;;;;;;4.05;1.90;;;;;;;25.33;36.00;102818.53;5009088;28;97571;-74
2023/05/26 00:38:17;;;;;;;2.72;1.67;;;;;;;25.34;36.09;102827.66;5005406;28;96839;-74
2023/05/26 00:40:44;;;;;;;5.72;2.10;;;;;;;25.34;36.21;102833.16;5008618;28;97201;-74
2023/05/26 00:43:11;;;;;;;3.75;2.45;;;;;;;25.33;36.05;102829.53;5006063;28;99157;-74
2023/05/26 00:45:38;;;;;;;4.03;2.15;;;;;;;25.33;35.76;102829.53;5008798;28;97012;-74
2023/05/26 00:48:05;;;;;;;4.72;1.80;;;;;;;25.32;35.98;102827.81;5007414;28;96937;-74
2023/05/26 00:50:31;;;;;;;3.85;2.08;;;;;;;25.34;36.12;102824.91;5009712;28;96965;-74
2023/05/26 00:53:00;;;;;;;3.85;1.83;;;;;;;25.32;36.26;102830.56;5002557;28;98437;-74
2023/05/26 00:55:28;;;;;;;4.63;2.05;;;;;;;25.32;36.01;102822.31;4980988;28;99005;-74
2023/05/26 00:57:56;;;;;;;3.20;1.60;;;;;;;25.32;35.84;102829.69;5009091;28;96881;-74
2023/05/26 01:00:24;;;;;;;2.80;1.70;;;;;;;25.31;35.99;102825.22;5010945;28;97061;-74
2023/05/26 01:02:56;;;;;;;3.92;1.65;;;;;;;25.31;36.12;102831.59;5008045;28;97469;-74
2023/05/26 01:05:23;;;;;;;3.55;1.90;;;;;;;25.31;36.13;102828.84;5003646;28;97096;-74
2023/05/26 01:07:50;;;;;;;3.53;1.80;;;;;;;25.31;35.92;102837.09;5011293;28;97018;-74
2023/05/26 01:10:17;;;;;;;3.08;1.50;;;;;;;25.31;36.07;102837.09;5012646;28;96947;-74
2023/05/26 01:12:53;;;;;;;3.63;1.90;;;;;;;25.31;35.96;102837.09;5011177;28;99877;-74
2023/05/26 01:15:29;;;;;;;2.97;1.67;;;;;;;25.30;36.21;102838.09;5010357;28;99299;-74
2023/05/26 01:18:10;;;;;;;2.65;1.65;;;;;;;25.28;36.15;102840.16;5010654;28;96963;-74
2023/05/26 01:20:50;;;;;;;4.13;1.90;;;;;;;25.28;36.06;102833.78;5011540;28;96761;-74
2023/05/26 01:23:48;;;;;;;4.60;2.10;;;;;;;25.26;35.97;102828.41;5012021;28;97256;-74
2023/05/26 01:26:36;;;;;;;3.08;1.73;;;;;;;25.25;36.02;102834.94;5009750;28;96913;-74
2023/05/26 01:29:15;;;;;;;3.97;1.98;;;;;;;25.24;36.03;102840.59;5000876;28;96814;-74
2023/05/26 01:31:42;;;;;;;3.53;1.77;;;;;;;25.23;36.52;102841.63;5012717;28;96745;-74
2023/05/26 01:34:09;;;;;;;3.70;1.67;;;;;;;25.23;36.30;102842.47;5010113;28;96948;-74
2023/05/26 01:36:35;;;;;;;3.25;1.55;;;;;;;25.23;36.08;102839.72;5013090;28;96754;-74
2023/05/26 01:39:04;;;;;;;4.25;1.80;;;;;;;25.23;36.20;102836.13;5012752;28;96630;-74
2023/05/26 01:41:42;;;;;;;3.78;1.70;;;;;;;25.25;36.08;102839.56;5011222;28;97492;-74
2023/05/26 01:44:16;;;;;;;3.83;1.42;;;;;;;25.23;36.16;102833.38;4998759;28;96860;-74
2023/05/26 01:46:49;;;;;;;3.92;1.60;;;;;;;25.23;36.27;102830.63;5011951;28;97462;-74
2023/05/26 01:49:18;;;;;;;3.83;1.50;;;;;;;25.21;35.99;102840.91;5013156;28;97142;-74
2023/05/26 01:51:56;;;;;;;3.40;1.73;;;;;;;25.21;36.20;102841.78;5012191;28;96876;-74
2023/05/26 01:54:25;;;;;;;4.60;2.03;;;;;;;25.20;36.23;102841.94;5009827;28;100377;-74
2023/05/26 01:56:53;;;;;;;4.57;1.60;;;;;;;25.20;35.97;102841.94;5010077;28;97944;-74
2023/05/26 01:59:21;;;;;;;3.67;1.75;;;;;;;25.20;35.89;102848.28;5010135;28;97347;-74
2023/05/26 02:01:47;;;;;;;3.78;1.67;;;;;;;25.19;36.21;102837.44;5011635;28;97040;-74
2023/05/26 02:04:15;;;;;;;3.40;1.70;;;;;;;25.19;36.15;102846.56;5010638;28;97732;-74
2023/05/26 02:06:41;;;;;;;2.47;1.30;;;;;;;25.20;35.77;102840.03;5008267;28;98762;-74
2023/05/26 02:09:08;;;;;;;4.63;1.73;;;;;;;25.20;36.04;102841.94;5009346;28;97059;-74
2023/05/26 02:11:35;;;;;;;3.90;1.80;;;;;;;25.20;36.16;102850.19;5011171;28;96871;-74
2023/05/26 02:14:01;;;;;;;4.28;1.77;;;;;;;25.20;35.91;102851.03;5008927;28;99599;-74
2023/05/26 02:16:28;;;;;;;3.05;1.67;;;;;;;25.20;35.98;102850.19;5009660;28;96917;-74
2023/05/26 02:18:56;;;;;;;3.83;1.50;;;;;;;25.20;36.03;102850.19;5010832;28;96838;-74
2023/05/26 02:21:23;;;;;;;3.58;1.50;;;;;;;25.19;35.98;102852.06;5009544;28;96940;-74
2023/05/26 02:23:50;;;;;;;3.58;1.60;;;;;;;25.20;36.19;102852.94;5010563;28;96787;-74
2023/05/26 02:26:16;;;;;;;4.47;1.83;;;;;;;25.19;36.24;102854.81;5009584;28;96951;-74
2023/05/26 02:28:45;;;;;;;3.10;1.63;;;;;;;25.18;36.00;102855.84;5010891;28;97095;-74
2023/05/26 02:31:12;;;;;;;2.13;1.40;;;;;;;25.18;35.89;102861.34;5009185;28;96784;-74
2023/05/26 02:33:40;;;;;;;3.30;1.45;;;;;;;25.18;35.87;102855.84;5009253;28;97249;-74
2023/05/26 02:36:09;;;;;;;4.20;1.73;;;;;;;25.19;36.06;102859.44;5008897;28;100146;-74
2023/05/26 02:38:35;;;;;;;4.80;1.80;;;;;;;25.17;35.93;102853.25;5009429;28;96928;-74
2023/05/26 02:41:02;;;;;;;4.55;1.73;;;;;;;25.18;36.01;102852.22;5009504;28;96895;-74
2023/05/26 02:43:28;;;;;;;3.10;1.65;;;;;;;25.17;35.88;102853.25;5007463;28;96817;-74
2023/05/26 02:45:55;;;;;;;2.97;1.50;;;;;;;25.18;36.05;102857.72;5009781;28;96707;-74
2023/05/26 02:48:21;;;;;;;3.33;1.70;;;;;;;25.17;36.14;102856.84;5008729;28;96860;-74
2023/05/26 02:50:49;;;;;;;3.05;1.60;;;;;;;25.17;36.18;102847.75;5011190;28;97344;-74
2023/05/26 02:53:15;;;;;;;2.70;1.48;;;;;;;25.16;35.94;102846.88;5008207;28;99825;-74
2023/05/26 02:55:42;;;;;;;3.53;1.60;;;;;;;25.16;35.92;102854.25;5009648;28;97252;-74
2023/05/26 02:58:10;;;;;;;3.78;1.58;;;;;;;25.15;36.15;102847.91;5008443;28;97133;-74
2023/05/26 03:00:37;;;;;;;4.22;1.52;;;;;;;25.16;35.84;102851.50;5008244;28;96829;-74
2023/05/26 03:03:04;;;;;;;3.92;1.55;;;;;;;25.16;36.21;102851.50;4992123;28;99416;-74
2023/05/26 03:05:31;;;;;;;2.47;1.30;;;;;;;25.15;36.23;102856.16;5008003;28;97370;-74
2023/05/26 03:07:58;;;;;;;4.25;1.73;;;;;;;25.14;36.19;102846.16;5007900;28;97611;-74
2023/05/26 03:10:24;;;;;;;3.60;1.77;;;;;;;25.14;35.99;102856.31;5008397;28;96804;-74
2023/05/26 03:12:51;;;;;;;3.42;1.63;;;;;;;25.14;36.01;102848.06;5009990;28;96610;-74
2023/05/26 03:15:18;;;;;;;2.83;1.55;;;;;;;25.14;36.21;102851.66;5008325;28;99231;-74
2023/05/26 03:17:44;;;;;;;3.88;1.58;;;;;;;25.13;35.88;102855.44;5008178;28;96791;-74
2023/05/26 03:20:11;;;;;;;2.22;1.30;;;;;;;25.13;35.94;102849.94;5013019;28;96773;-74
2023/05/26 03:22:38;;;;;;;2.70;1.30;;;;;;;25.13;36.12;102849.94;5008606;28;97137;-74
2023/05/26 03:25:16;;;;;;;2.97;1.50;;;;;;;25.13;35.84;102854.56;5007494;28;96653;-74
2023/05/26 03:27:46;;;;;;;2.72;1.60;;;;;;;25.12;36.03;102859.22;5007026;28;97008;-74
2023/05/26 03:30:13;;;;;;;2.95;1.30;;;;;;;25.13;36.03;102862.81;4991785;28;96793;-74
2023/05/26 03:32:41;;;;;;;3.33;1.70;;;;;;;25.12;36.06;102866.59;5007227;28;100018;-74
2023/05/26 03:35:09;;;;;;;3.20;1.55;;;;;;;25.11;36.01;102865.72;5009410;28;98062;-74
2023/05/26 03:37:36;;;;;;;3.50;1.83;;;;;;;25.11;36.39;102871.22;5008034;28;96779;-74
2023/05/26 03:40:05;;;;;;;1.65;1.30;;;;;;;25.11;36.07;102864.88;4991600;28;97078;-74
2023/05/26 03:42:33;;;;;;;2.88;1.40;;;;;;;25.10;36.03;102868.63;5007316;28;99662;-74
2023/05/26 03:45:00;;;;;;;2.78;1.50;;;;;;;25.10;35.86;102871.38;5008039;28;99043;-74
2023/05/26 03:47:28;;;;;;;4.20;1.50;;;;;;;25.10;36.13;102874.13;5008246;28;97051;-74
2023/05/26 03:49:55;;;;;;;3.65;1.58;;;;;;;25.09;35.99;102872.41;5008943;28;96898;-74
2023/05/26 03:52:22;;;;;;;3.78;1.65;;;;;;;25.09;35.76;102872.41;5007476;28;98920;-74
2023/05/26 03:54:49;;;;;;;2.65;1.55;;;;;;;25.08;36.09;102877.03;5009440;28;97178;-74
2023/05/26 03:57:16;;;;;;;2.75;1.33;;;;;;;25.08;36.05;102878.91;4988717;28;96800;-74
2023/05/26 03:59:45;;;;;;;4.10;1.67;;;;;;;25.08;36.00;102878.91;4999538;28;97779;-74
2023/05/26 04:02:11;;;;;;;3.28;1.63;;;;;;;25.08;35.70;102881.66;5007253;28;97673;-74
2023/05/26 04:04:38;;;;;;;4.35;1.63;;;;;;;25.08;35.37;102885.28;5008165;28;99000;-74
2023/05/26 04:07:05;;;;;;;3.67;1.88;;;;;;;25.07;35.91;102878.06;5007025;28;97011;-74
2023/05/26 04:09:32;;;;;;;3.22;1.70;;;;;;;25.08;35.92;102888.03;5008288;28;96808;-74
2023/05/26 04:12:00;;;;;;;2.28;1.40;;;;;;;25.08;35.76;102878.91;5007133;28;100697;-74
2023/05/26 04:14:27;;;;;;;3.78;1.65;;;;;;;25.07;36.06;102882.69;5007307;28;96740;-74
2023/05/26 04:16:54;;;;;;;3.45;1.67;;;;;;;25.07;36.16;102888.19;5007554;28;97462;-74
2023/05/26 04:19:21;;;;;;;3.28;1.70;;;;;;;25.06;35.69;102887.31;4991708;28;96751;-74
2023/05/26 04:21:49;;;;;;;3.35;1.40;;;;;;;25.06;35.92;102883.72;5004780;28;97057;-74
2023/05/26 04:24:16;;;;;;;3.22;1.48;;;;;;;25.06;36.13;102889.22;4996813;28;100243;-74
2023/05/26 04:26:43;;;;;;;3.33;1.55;;;;;;;25.06;35.52;102887.31;5007718;28;97025;-74
2023/05/26 04:29:13;;;;;;;2.78;1.60;;;;;;;25.05;36.10;102885.59;5008451;28;98545;-74
2023/05/26 04:32:00;;;;;;;3.45;1.67;;;;;;;25.03;36.08;102890.38;4997689;28;96743;-74
2023/05/26 04:34:44;;;;;;;2.95;1.25;;;;;;;25.03;35.92;102891.25;5026841;28;98033;-74
2023/05/26 04:37:22;;;;;;;3.10;1.60;;;;;;;25.04;36.05;102892.13;5010630;28;96690;-74
2023/05/26 04:39:49;;;;;;;2.55;1.55;;;;;;;25.03;36.06;102890.38;5011875;28;97699;-74
2023/05/26 04:42:16;;;;;;;2.67;1.40;;;;;;;25.04;36.03;102892.13;4994466;28;99250;-74
2023/05/26 04:44:43;;;;;;;3.60;1.52;;;;;;;25.04;35.85;102900.34;5009870;28;96921;-74
2023/05/26 04:47:10;;;;;;;3.00;1.55;;;;;;;25.04;35.80;102892.13;4999662;28;96985;-74
2023/05/26 04:49:37;;;;;;;3.38;1.40;;;;;;;25.05;35.82;102891.09;5005052;28;96816;-74
2023/05/26 04:52:04;;;;;;;3.70;1.40;;;;;;;25.04;35.93;102894.88;5011810;28;98332;-74
2023/05/26 04:54:34;;;;;;;2.38;1.45;;;;;;;25.04;35.87;102905.84;5010624;28;97585;-74
2023/05/26 04:57:01;;;;;;;3.47;1.80;;;;;;;25.05;35.85;102909.47;5010655;28;96752;-74
2023/05/26 04:59:46;;;;;;;2.47;1.20;;;;;;;25.03;35.70;102905.00;5010912;28;97140;-74
2023/05/26 05:02:15;;;;;;;3.90;1.73;;;;;;;25.05;36.10;102907.59;4993384;28;99817;-74
2023/05/26 05:04:59;;;;;;;3.10;1.40;;;;;;;25.05;36.07;102903.97;4996164;28;97876;-74
2023/05/26 05:07:26;;;;;;;4.38;2.00;;;;;;;25.05;35.98;102909.47;5010537;28;97929;-74
2023/05/26 05:09:52;;;;;;;2.97;1.65;;;;;;;25.04;36.12;102905.84;5010754;28;96894;-74
2023/05/26 05:12:20;;;;;;;3.08;1.40;;;;;;;25.04;35.93;102908.59;5010428;28;99493;-74
2023/05/26 05:14:47;;;;;;;4.57;1.80;;;;;;;25.04;35.76;102911.34;5009739;28;98617;-74
2023/05/26 05:17:14;;;;;;;3.25;1.60;;;;;;;25.06;35.88;102914.81;5010633;28;97554;-74
2023/05/26 05:19:41;;;;;;;4.22;1.65;;;;;;;25.07;35.71;102926.69;5011012;28;96944;-74
2023/05/26 05:22:07;;;;;;;2.58;1.30;;;;;;;25.06;35.88;102922.19;5010201;28;100144;-74
2023/05/26 05:24:34;;;;;;;3.58;1.60;;;;;;;25.06;35.96;102922.19;5009701;28;98649;-74
2023/05/26 05:27:02;;;;;;;3.28;1.77;;;;;;;25.07;35.73;102923.94;5009891;28;97213;-74
2023/05/26 05:29:28;;;;;;;1.85;1.17;;;;;;;25.06;35.63;102928.56;4997647;28;96805;-74
2023/05/26 05:31:58;;;;;;;3.70;1.67;;;;;;;25.07;35.77;102926.69;5009757;28;100041;-74
2023/05/26 05:34:27;;;;;;;3.70;1.42;;;;;;;25.07;35.92;102923.94;5010006;28;98532;-74
2023/05/26 05:36:54;;;;;;;3.35;1.60;;;;;;;25.06;35.97;102922.19;5010494;28;96819;-74
2023/05/26 05:39:20;;;;;;;4.28;1.90;;;;;;;25.06;35.59;102924.94;5009998;28;96773;-74
2023/05/26 05:41:47;;;;;;;4.88;1.67;;;;;;;25.07;35.76;102929.44;5009911;28;98021;-74
2023/05/26 05:44:15;;;;;;;3.85;1.60;;;;;;;25.06;35.80;102925.81;5010190;28;97735;-74
2023/05/26 05:46:42;;;;;;;3.22;1.60;;;;;;;25.06;35.73;102925.81;5010253;28;96788;-74
2023/05/26 05:49:19;;;;;;;2.88;1.45;;;;;;;25.06;35.70;102935.94;5010246;28;96873;-74
2023/05/26 05:51:48;;;;;;;3.92;1.58;;;;;;;25.06;35.88;102931.31;5009171;28;97710;-74
2023/05/26 05:54:15;;;;;;;2.47;1.30;;;;;;;25.07;35.81;102937.69;5009148;28;96916;-74
2023/05/26 05:56:43;;;;;;;3.17;1.35;;;;;;;25.06;35.91;102934.06;5009953;28;96933;-74
2023/05/26 05:59:12;;;;;;;3.08;1.60;;;;;;;25.06;35.75;102942.31;4993706;28;96869;-74
2023/05/26 06:01:39;;;;;;;2.42;1.33;;;;;;;25.08;35.88;102944.91;4992721;28;98905;-74
2023/05/26 06:04:06;;;;;;;2.63;1.45;;;;;;;25.07;35.96;102948.69;4996004;28;98694;-74
2023/05/26 06:06:36;;;;;;;3.22;1.73;;;;;;;25.09;35.63;102946.63;5010008;28;97290;-74
2023/05/26 06:09:03;;;;;;;3.10;1.40;;;;;;;25.08;35.78;102953.16;5009576;28;96899;-74
2023/05/26 06:11:31;;;;;;;3.58;1.30;;;;;;;25.08;35.80;102953.16;4996888;28;100839;-74
2023/05/26 06:13:58;;;;;;;2.08;1.33;;;;;;;25.08;35.62;102959.53;4996486;28;100667;-74
2023/05/26 06:16:25;;;;;;;2.65;1.38;;;;;;;25.08;36.27;102964.16;5009238;28;96669;-74
2023/05/26 06:18:52;;;;;;;3.47;1.30;;;;;;;25.09;35.72;102965.88;5009947;28;97152;-74
2023/05/26 06:21:19;;;;;;;3.33;1.65;;;;;;;25.09;35.75;102963.13;5009071;28;100610;-74
2023/05/26 06:23:52;;;;;;;3.00;1.48;;;;;;;25.08;35.88;102970.53;5009016;28;99391;-74
2023/05/26 06:26:19;;;;;;;2.97;1.65;;;;;;;25.09;35.83;102972.25;5011393;28;97420;-73
2023/05/26 06:28:45;;;;;;;3.90;1.73;;;;;;;25.08;35.93;102967.78;5011344;28;97362;-74
2023/05/26 06:31:13;;;;;;;3.45;1.80;;;;;;;25.09;35.61;102968.63;5009159;28;100644;-75
2023/05/26 06:34:00;;;;;;;2.05;1.25;;;;;;;25.08;35.95;102967.78;4994734;28;96704;-74
2023/05/26 06:36:27;;;;;;;3.15;1.58;;;;;;;25.08;35.72;102973.25;5007789;28;96928;-74
2023/05/26 06:38:55;;;;;;;2.63;1.35;;;;;;;25.08;35.71;102967.78;5010930;28;96883;-74
2023/05/26 06:41:22;;;;;;;5.18;1.50;;;;;;;25.09;35.73;102971.38;5008201;28;100765;-74
2023/05/26 06:43:52;;;;;;;3.95;1.70;;;;;;;25.09;35.91;102957.63;4995190;28;97133;-74
2023/05/26 06:46:19;;;;;;;3.80;1.30;;;;;;;25.09;35.87;102964.00;4992678;28;96729;-74
2023/05/26 06:48:46;;;;;;;3.58;1.60;;;;;;;25.09;35.74;102963.13;5017724;28;96973;-74
2023/05/26 06:51:31;;;;;;;3.70;1.50;;;;;;;25.08;35.71;102962.28;5008388;28;97126;-74
2023/05/26 06:53:59;;;;;;;2.10;1.35;;;;;;;25.08;35.78;102967.78;5006362;28;99532;-74
2023/05/26 06:56:29;;;;;;;3.97;1.92;;;;;;;25.08;36.09;102966.91;5007991;28;96993;-74
2023/05/26 06:58:55;;;;;;;2.83;1.45;;;;;;;25.08;35.68;102969.66;5008440;28;97330;-74
2023/05/26 07:01:23;;;;;;;3.42;1.50;;;;;;;25.09;35.80;102964.00;5007374;28;100525;-74
2023/05/26 07:03:51;;;;;;;3.05;1.55;;;;;;;25.10;35.87;102975.88;5007053;28;98743;-74
2023/05/26 07:06:17;;;;;;;3.30;1.70;;;;;;;25.09;35.61;102966.75;5005949;28;97723;-74
2023/05/26 07:08:44;;;;;;;3.50;1.95;;;;;;;25.09;35.77;102958.50;5009425;28;96953;-75
2023/05/26 07:11:19;;;;;;;3.05;1.58;;;;;;;25.09;35.96;102969.50;5009319;28;100881;-74
2023/05/26 07:13:51;;;;;;;4.25;1.23;;;;;;;25.09;35.58;102963.13;5007996;28;98535;-74
2023/05/26 07:16:19;;;;;;;3.30;1.73;;;;;;;25.10;35.93;102970.38;4989334;28;97019;-74
2023/05/26 07:18:46;;;;;;;4.20;1.30;;;;;;;25.10;35.92;102971.22;5007394;28;96716;-73
2023/05/26 07:21:15;;;;;;;4.20;1.73;;;;;;;25.10;35.62;102971.22;4991938;28;100643;-74
2023/05/26 07:23:43;;;;;;;3.05;1.60;;;;;;;25.11;35.59;102978.47;5011534;28;100583;-74
2023/05/26 07:26:10;;;;;;;2.67;1.30;;;;;;;25.11;35.56;102974.84;5010314;28;97081;-74
2023/05/26 07:28:37;;;;;;;4.28;1.70;;;;;;;25.10;35.48;102976.72;5008772;28;96940;-74
2023/05/26 07:31:03;;;;;;;4.93;1.60;;;;;;;25.11;35.68;102972.97;5008148;28;99202;-74
2023/05/26 07:33:35;;;;;;;3.10;1.40;;;;;;;25.12;35.48;102985.69;5008177;28;100068;-74
2023/05/26 07:36:01;;;;;;;4.15;1.73;;;;;;;25.11;35.96;102975.72;5007896;28;96729;-74
2023/05/26 07:38:28;;;;;;;4.13;1.73;;;;;;;25.11;35.51;102975.72;5008809;28;96861;-74
2023/05/26 07:40:55;;;;;;;3.80;1.60;;;;;;;25.12;35.80;102973.81;5009933;28;97135;-75
2023/05/26 07:43:21;;;;;;;4.55;1.88;;;;;;;25.12;35.51;102971.94;5006849;28;100508;-75
2023/05/26 07:45:48;;;;;;;3.72;1.80;;;;;;;25.12;35.51;102977.44;5009705;28;96889;-74
2023/05/26 07:48:15;;;;;;;3.15;1.83;;;;;;;25.13;35.86;102975.56;4994177;28;96875;-74
2023/05/26 07:50:44;;;;;;;3.53;1.63;;;;;;;25.13;35.70;102975.56;5008232;28;96765;-74
2023/05/26 07:53:11;;;;;;;4.45;1.80;;;;;;;25.13;35.73;102976.41;5009192;28;97327;-74
2023/05/26 07:55:38;;;;;;;4.18;1.63;;;;;;;25.13;36.00;102975.56;5009195;28;97159;-74
2023/05/26 07:58:05;;;;;;;3.80;1.95;;;;;;;25.13;35.67;102970.94;5009809;28;96772;-73
2023/05/26 08:00:31;;;;;;;2.65;1.42;;;;;;;25.13;35.62;102968.19;5009384;28;97624;-74
2023/05/26 08:02:58;;;;;;;5.05;1.80;;;;;;;25.13;35.72;102981.06;5010116;28;97935;-74
2023/05/26 08:05:26;;;;;;;5.43;2.20;;;;;;;25.13;35.77;102976.41;5010034;28;97747;-74
2023/05/26 08:07:53;;;;;;;4.07;1.90;;;;;;;25.13;35.73;102973.69;5011887;28;96907;-74
2023/05/26 08:10:20;;;;;;;3.47;1.60;;;;;;;25.13;35.68;102972.81;5011527;28;96752;-74
2023/05/26 08:12:47;;;;;;;5.50;1.80;;;;;;;25.14;35.72;102974.53;4995631;28;98986;-74
2023/05/26 08:15:15;;;;;;;5.05;1.75;;;;;;;25.14;35.83;102975.41;5012910;28;96851;-74
2023/05/26 08:17:45;;;;;;;3.63;1.75;;;;;;;25.14;35.49;102969.91;5013037;28;96761;-74
2023/05/26 08:20:12;;;;;;;4.32;1.70;;;;;;;25.13;35.41;102962.69;5011211;28;97703;-74
2023/05/26 08:22:39;;;;;;;3.95;1.60;;;;;;;25.14;35.45;102972.66;5013794;28;97299;-74
2023/05/26 08:25:06;;;;;;;5.15;1.95;;;;;;;25.15;35.60;102973.53;5012953;28;96983;-74
2023/05/26 08:27:32;;;;;;;4.57;2.05;;;;;;;25.15;35.63;102974.38;5012999;28;96750;-74
2023/05/26 08:29:59;;;;;;;4.03;2.00;;;;;;;25.16;35.83;102975.25;4998726;28;99480;-74
2023/05/26 08:32:25;;;;;;;3.97;1.80;;;;;;;25.15;35.71;102968.88;5012917;28;96734;-74
2023/05/26 08:34:52;;;;;;;3.38;1.60;;;;;;;25.16;35.65;102970.63;5004925;28;96687;-74
2023/05/26 08:37:19;;;;;;;6.43;1.92;;;;;;;25.16;35.65;102969.75;5008056;28;97083;-74
2023/05/26 08:39:45;;;;;;;5.25;1.95;;;;;;;25.16;35.25;102969.75;5011108;28;99325;-74
2023/05/26 08:42:17;;;;;;;4.47;1.63;;;;;;;25.17;35.62;102974.22;5011077;28;97496;-74
2023/05/26 08:44:50;;;;;;;4.50;1.60;;;;;;;25.15;35.58;102973.53;5012103;28;96834;-74
2023/05/26 08:47:18;;;;;;;3.67;1.80;;;;;;;25.16;35.48;102978.00;5012692;28;97378;-74
2023/05/26 08:50:00;;;;;;;4.20;1.70;;;;;;;25.16;35.59;102965.13;5012257;28;97706;-74
2023/05/26 08:52:28;;;;;;;5.25;1.60;;;;;;;25.15;35.48;102977.13;5010079;28;98479;-74
2023/05/26 08:54:55;;;;;;;3.53;1.65;;;;;;;25.15;35.72;102974.38;5009970;28;97081;-74
2023/05/26 08:57:22;;;;;;;4.95;1.60;;;;;;;25.16;35.82;102973.38;5011939;28;97012;-74
2023/05/26 08:59:49;;;;;;;3.83;1.65;;;;;;;25.16;35.59;102969.75;5007150;28;99595;-74
2023/05/26 09:02:17;;;;;;;3.30;1.60;;;;;;;25.16;35.64;102970.63;5009615;28;97297;-74
2023/05/26 09:04:43;;;;;;;3.55;1.85;;;;;;;25.16;35.55;102970.63;5012084;28;96917;-74
2023/05/26 09:07:10;;;;;;;3.78;1.73;;;;;;;25.17;35.69;102960.47;5009967;28;96661;-74
2023/05/26 09:09:40;;;;;;;4.15;1.70;;;;;;;25.17;35.72;102972.34;5010645;28;97094;-74
2023/05/26 09:12:11;;;;;;;2.67;1.33;;;;;;;25.18;35.70;102968.56;5011529;28;97130;-74
2023/05/26 09:14:39;;;;;;;5.32;2.00;;;;;;;25.18;35.38;102975.97;5011261;28;96826;-74
2023/05/26 09:17:06;;;;;;;4.00;1.70;;;;;;;25.17;35.40;102964.09;5010893;28;96849;-73
2023/05/26 09:19:33;;;;;;;3.75;1.77;;;;;;;25.18;35.53;102964.97;5012008;28;97117;-74
2023/05/26 09:22:08;;;;;;;4.00;1.67;;;;;;;25.18;35.86;102967.72;4999193;28;97022;-74
2023/05/26 09:24:47;;;;;;;6.03;2.05;;;;;;;25.18;35.70;102965.81;5012728;28;96736;-74
2023/05/26 09:27:19;;;;;;;3.88;1.40;;;;;;;25.17;35.41;102957.72;5004649;28;96874;-74
2023/05/26 09:29:50;;;;;;;4.82;1.75;;;;;;;25.17;35.65;102964.09;5011825;28;96755;-77
2023/05/26 09:32:17;;;;;;;4.70;1.90;;;;;;;25.17;35.31;102969.59;5017521;28;97416;-77
2023/05/26 09:34:44;;;;;;;3.50;1.60;;;;;;;25.17;35.57;102972.34;5017101;28;96751;-77
2023/05/26 09:37:11;;;;;;;4.85;1.88;;;;;;;25.18;35.69;102973.22;5008833;28;96773;-77
2023/05/26 09:39:38;;;;;;;4.00;1.98;;;;;;;25.18;35.51;102968.56;5011137;28;97506;-77
2023/05/26 09:42:08;;;;;;;4.78;2.40;;;;;;;25.18;35.26;102971.31;5010454;28;96864;-75
2023/05/26 09:44:35;;;;;;;4.63;1.83;;;;;;;25.18;35.40;102968.56;5010557;28;96859;-75
2023/05/26 09:47:02;;;;;;;5.13;2.35;;;;;;;25.18;35.51;102971.31;5009701;28;97959;-77
2023/05/26 09:49:31;;;;;;;4.55;2.03;;;;;;;25.19;35.36;102970.31;5017822;28;98053;-76
2023/05/26 09:51:58;;;;;;;4.65;1.88;;;;;;;25.19;35.58;102972.19;5011715;28;96673;-77
2023/05/26 09:54:39;;;;;;;5.38;2.00;;;;;;;25.18;35.45;102974.06;4992153;28;96739;-76
2023/05/26 09:57:12;;;;;;;5.15;2.17;;;;;;;25.19;35.12;102980.44;5005510;28;97187;-76
2023/05/26 09:59:42;;;;;;;;;;;;;;;25.15;35.30;102979.03;5010293;28;96860;-76
2023/05/26 10:02:22;;;;;;;6.45;2.33;;;;;;;25.15;35.37;102968.88;5011136;28;96810;-75
2023/05/26 10:04:50;;;;;;;4.22;2.25;;;;;;;25.15;35.41;102965.28;5011376;28;96804;-75
2023/05/26 10:07:18;;;;;;;5.97;2.10;;;;;;;25.16;35.18;102965.13;5010666;28;96889;-75
2023/05/26 10:09:55;;;;;;;4.90;2.30;;;;;;;25.17;35.30;102966.84;5010060;28;97012;-75
2023/05/26 10:12:30;;;;;;;4.68;2.10;;;;;;;25.18;35.25;102962.22;5010806;28;97282;-76
2023/05/26 10:14:57;;;;;;;;;;;;;;;25.13;35.46;102965.44;5010201;28;97339;-75
2023/05/26 10:17:25;;;;;;;5.85;2.60;;;;;;;25.12;35.46;102958.19;5011737;28;96834;-75
2023/05/26 10:19:54;;;;;;;5.22;1.90;;;;;;;25.15;35.53;102959.78;5010981;28;97132;-75
2023/05/26 10:22:27;;;;;;;4.50;1.98;;;;;;;25.16;35.19;102958.75;5011093;28;96561;-75
2023/05/26 10:25:06;;;;;;;5.05;1.98;;;;;;;25.16;35.46;102948.63;5011031;28;97013;-76
2023/05/26 10:27:46;;;;;;;7.25;2.53;;;;;;;25.16;35.16;102948.63;5002561;28;97101;-76
2023/05/26 10:30:16;;;;;;;5.28;2.10;;;;;;;25.17;35.29;102930.22;5020704;28;97931;-74
2023/05/26 10:32:54;;;;;;;4.65;2.03;;;;;;;25.17;35.50;102949.47;5011495;28;96805;-75
2023/05/26 10:35:24;;;;;;;3.15;1.75;;;;;;;25.18;35.30;102945.72;5011168;28;97097;-74
2023/05/26 10:38:11;;;;;;;5.47;2.10;;;;;;;25.17;35.36;102936.59;5008072;28;96704;-74
2023/05/26 10:40:42;;;;;;;3.85;1.90;;;;;;;25.18;35.31;102937.47;4992964;28;97781;-74
2023/05/26 10:43:26;;;;;;;4.78;2.63;;;;;;;25.18;35.38;102943.81;5010778;28;96958;-74
2023/05/26 10:46:03;;;;;;;4.33;1.83;;;;;;;25.18;35.59;102934.72;5009323;28;99382;-74
2023/05/26 10:48:41;;;;;;;4.30;2.17;;;;;;;25.17;35.39;102941.22;5010829;28;96862;-74
2023/05/26 10:51:37;;;;;;;4.13;1.83;;;;;;;25.17;35.40;102928.34;5009982;28;97821;-74
2023/05/26 10:54:16;;;;;;;5.10;2.30;;;;;;;25.17;35.23;102927.47;4991384;28;97827;-74
2023/05/26 10:56:43;;;;;;;4.57;1.90;;;;;;;25.16;35.19;102926.63;5008350;28;96922;-74
2023/05/26 10:59:36;;;;;;;4.30;1.85;;;;;;;25.17;35.34;102922.84;5009670;28;96829;-74
2023/05/26 11:02:04;;;;;;;3.88;1.63;;;;;;;25.17;35.27;102927.47;5009127;28;98913;-74
2023/05/26 11:04:46;;;;;;;3.03;1.58;;;;;;;25.18;35.46;102927.34;5010662;28;97002;-74
2023/05/26 11:07:23;;;;;;;4.82;1.98;;;;;;;25.18;35.52;102932.84;5009489;28;97147;-74
2023/05/26 11:10:05;;;;;;;4.68;1.85;;;;;;;25.19;35.39;102933.69;5011829;28;97072;-74
2023/05/26 11:12:33;;;;;;;3.03;1.80;;;;;;;25.18;35.29;102920.97;5021065;28;98057;-74
2023/05/26 11:15:26;;;;;;;4.22;1.70;;;;;;;25.19;35.52;102926.31;5008203;28;97288;-74
2023/05/26 11:17:55;;;;;;;4.00;1.92;;;;;;;25.18;35.53;102921.81;5006206;28;97341;-74
2023/05/26 11:20:23;;;;;;;3.25;1.80;;;;;;;25.19;35.53;102919.94;5010702;28;97231;-74
2023/05/26 11:22:52;;;;;;;3.40;1.65;;;;;;;25.20;35.16;102922.53;5009972;28;96882;-74
2023/05/26 11:25:19;;;;;;;4.35;2.35;;;;;;;25.20;35.57;102928.03;5008454;28;97032;-74
2023/05/26 11:27:47;;;;;;;3.47;1.60;;;;;;;25.20;35.16;102911.53;5009684;28;96793;-74
2023/05/26 11:30:14;;;;;;;4.85;1.90;;;;;;;25.22;35.55;102930.63;5010537;28;97067;-74
2023/05/26 11:32:51;;;;;;;2.67;1.60;;;;;;;25.22;35.57;102915.00;5007963;28;100090;-74
2023/05/26 11:35:25;;;;;;;3.20;1.70;;;;;;;25.22;35.32;102926.00;5009965;28;98706;-74